createdAt,value
2022-09-02T00:01:59.301Z,61.83
2022-09-02T00:04:28.804Z,60.85
2022-09-02T00:06:58.095Z,61.05
2022-09-02T00:09:27.755Z,61.00
2022-09-02T00:11:58.132Z,60.92
2022-09-02T00:14:30.197Z,60.69
2022-09-02T00:17:01.725Z,60.78
2022-09-02T00:19:32.578Z,60.89
2022-09-02T00:22:02.811Z,61.04
2022-09-02T00:24:32.398Z,60.92
2022-09-02T00:27:02.446Z,60.84
2022-09-02T00:29:32.130Z,61.06
2022-09-02T00:32:02.792Z,61.41
2022-09-02T00:34:32.221Z,61.35
2022-09-02T00:37:01.791Z,60.92
2022-09-02T00:39:31.792Z,61.00
2022-09-02T00:42:01.615Z,60.83
2022-09-02T00:44:30.983Z,60.35
2022-09-02T00:47:02.066Z,60.34
2022-09-02T00:49:35.020Z,60.00
2022-09-02T00:52:09.242Z,59.59
2022-09-02T00:54:42.632Z,59.45
2022-09-02T00:57:19.705Z,59.37
2022-09-02T00:59:56.064Z,59.38
2022-09-02T01:02:29.391Z,59.83
2022-09-02T01:04:59.408Z,59.89
2022-09-02T01:07:34.122Z,60.09
2022-09-02T01:10:03.928Z,60.71
2022-09-02T01:12:34.197Z,60.84
2022-09-02T01:15:04.358Z,61.49
2022-09-02T01:17:35.342Z,61.90
2022-09-02T01:20:12.261Z,62.61
2022-09-02T01:22:43.288Z,62.67
2022-09-02T01:25:18.331Z,63.04
2022-09-02T01:27:48.405Z,62.90
2022-09-02T01:30:21.718Z,63.87
2022-09-02T01:32:50.928Z,63.61
2022-09-02T01:35:20.417Z,63.61
2022-09-02T01:37:54.759Z,64.28
2022-09-02T01:40:27.163Z,64.91
2022-09-02T01:42:59.665Z,65.39
2022-09-02T01:45:29.666Z,66.01
2022-09-02T01:47:59.216Z,66.31
2022-09-02T01:50:28.997Z,66.58
2022-09-02T01:53:04.161Z,67.05
2022-09-02T01:55:36.223Z,66.94
2022-09-02T01:58:05.770Z,67.22
2022-09-02T02:00:35.834Z,67.16
2022-09-02T02:03:05.766Z,67.15
2022-09-02T02:05:35.708Z,66.95
2022-09-02T02:08:07.439Z,67.37
2022-09-02T02:10:37.049Z,66.99
2022-09-02T02:13:07.618Z,67.46
2022-09-02T02:15:42.037Z,67.58
2022-09-02T02:18:13.174Z,67.30
2022-09-02T02:20:44.868Z,67.61
2022-09-02T02:23:18.141Z,68.19
2022-09-02T02:25:47.565Z,68.75
2022-09-02T02:28:16.914Z,69.18
2022-09-02T02:30:47.001Z,69.16
2022-09-02T02:33:17.365Z,69.37
2022-09-02T02:35:47.313Z,69.25
2022-09-02T02:38:17.917Z,69.50
2022-09-02T02:40:47.801Z,69.28
2022-09-02T02:43:17.421Z,69.21
2022-09-02T02:45:46.603Z,69.30
2022-09-02T02:48:15.952Z,69.04
2022-09-02T02:50:45.553Z,68.48
2022-09-02T02:53:14.510Z,68.76
2022-09-02T02:55:50.058Z,68.47
2022-09-02T02:58:21.364Z,68.01
2022-09-02T03:00:51.705Z,67.59
2022-09-02T03:03:22.757Z,67.13
2022-09-02T03:05:55.555Z,66.43
2022-09-02T03:08:26.989Z,66.65
2022-09-02T03:10:58.756Z,66.69
2022-09-02T03:13:32.825Z,66.73
2022-09-02T03:16:05.297Z,66.80
2022-09-02T03:18:36.382Z,66.08
2022-09-02T03:21:09.474Z,65.98
2022-09-02T03:23:39.741Z,65.58
2022-09-02T03:26:18.587Z,65.49
2022-09-02T03:28:49.681Z,64.92
2022-09-02T03:31:22.457Z,64.68
2022-09-02T03:33:52.994Z,64.38
2022-09-02T03:36:26.238Z,63.65
2022-09-02T03:38:56.928Z,62.75
2022-09-02T03:41:28.434Z,62.74
2022-09-02T03:43:59.936Z,62.37
2022-09-02T03:46:31.473Z,61.60
2022-09-02T03:49:01.023Z,61.33
2022-09-02T03:51:31.367Z,61.10
2022-09-02T03:54:02.824Z,60.58
2022-09-02T03:56:36.307Z,60.04
2022-09-02T03:59:06.517Z,59.60
2022-09-02T04:01:36.617Z,59.13
2022-09-02T04:04:07.992Z,58.60
2022-09-02T04:06:39.145Z,58.74
2022-09-02T04:09:09.013Z,58.26
2022-09-02T04:11:43.606Z,57.93
2022-09-02T04:14:16.693Z,57.54
2022-09-02T04:16:46.469Z,57.51
2022-09-02T04:19:16.492Z,57.24
2022-09-02T04:21:46.328Z,57.34
2022-09-02T04:24:16.570Z,57.36
2022-09-02T04:26:51.390Z,57.41
2022-09-02T04:29:21.562Z,57.25
2022-09-02T04:31:55.432Z,58.16
2022-09-02T04:34:25.637Z,58.61
2022-09-02T04:36:56.597Z,58.84
2022-09-02T04:39:26.649Z,59.12
2022-09-02T04:41:57.921Z,59.06
2022-09-02T04:44:28.994Z,59.36
2022-09-02T04:46:59.598Z,59.86
2022-09-02T04:49:32.235Z,60.55
2022-09-02T04:52:03.787Z,61.26
2022-09-02T04:54:35.885Z,61.38
2022-09-02T04:57:08.462Z,61.80
2022-09-02T04:59:39.139Z,61.21
2022-09-02T05:02:12.701Z,61.09
2022-09-02T05:04:43.809Z,60.88
2022-09-02T05:07:22.991Z,60.65
2022-09-02T05:09:57.184Z,60.68
2022-09-02T05:12:29.585Z,60.57
2022-09-02T05:15:04.117Z,60.35
2022-09-02T05:17:36.895Z,60.78
2022-09-02T05:20:10.557Z,60.96
2022-09-02T05:22:43.494Z,61.01
2022-09-02T05:25:15.634Z,61.39
2022-09-02T05:27:48.828Z,62.18
2022-09-02T05:30:18.480Z,63.08
2022-09-02T05:32:50.124Z,62.84
2022-09-02T05:35:22.719Z,62.83
2022-09-02T05:38:00.108Z,63.19
2022-09-02T05:40:30.913Z,62.64
2022-09-02T05:43:05.221Z,61.92
2022-09-02T05:45:35.619Z,61.08
2022-09-02T05:48:27.224Z,60.01
2022-09-02T05:51:01.414Z,58.69
2022-09-02T05:53:34.230Z,58.79
2022-09-02T05:56:07.484Z,58.54
2022-09-02T05:58:46.554Z,58.68
2022-09-02T06:01:20.248Z,58.61
2022-09-02T06:03:50.630Z,58.26
2022-09-02T06:06:23.562Z,57.04
2022-09-02T06:08:53.302Z,57.24
2022-09-02T06:11:24.875Z,55.99
2022-09-02T06:13:57.157Z,55.31
2022-09-02T06:16:27.749Z,53.90
2022-09-02T06:18:58.475Z,54.21
2022-09-02T06:21:28.487Z,54.44
2022-09-02T06:24:00.413Z,53.92
2022-09-02T06:26:30.545Z,55.04
2022-09-02T06:29:02.053Z,54.62
2022-09-02T06:31:34.580Z,55.01
2022-09-02T06:34:06.095Z,55.53
2022-09-02T06:36:35.527Z,55.24
2022-09-02T06:39:06.197Z,54.94
2022-09-02T06:41:36.647Z,53.95
2022-09-02T06:44:16.273Z,54.92
2022-09-02T06:46:51.694Z,55.17
2022-09-02T06:49:25.281Z,56.61
2022-09-02T06:51:57.071Z,57.00
2022-09-02T06:54:33.794Z,56.35
2022-09-02T06:57:15.772Z,57.66
2022-09-02T06:59:46.931Z,57.48
2022-09-02T07:02:19.523Z,57.64
2022-09-02T07:05:09.332Z,54.52
2022-09-02T07:07:42.525Z,53.53
2022-09-02T07:10:16.931Z,52.05
2022-09-02T07:12:53.836Z,51.26
2022-09-02T07:15:27.498Z,51.19
2022-09-02T07:17:59.688Z,50.93
2022-09-02T07:20:37.231Z,50.33
2022-09-02T07:23:07.137Z,50.29
2022-09-02T07:25:41.828Z,49.85
2022-09-02T07:28:15.136Z,47.75
2022-09-02T07:30:46.203Z,46.29
2022-09-02T07:33:19.795Z,44.46
2022-09-02T07:35:50.546Z,42.76
2022-09-02T07:38:20.920Z,44.57
2022-09-02T07:40:57.130Z,45.36
2022-09-02T07:43:33.469Z,42.30
2022-09-02T07:46:04.955Z,42.83
2022-09-02T07:48:35.911Z,43.59
2022-09-02T07:51:06.954Z,45.83
2022-09-02T07:53:38.619Z,47.31
2022-09-02T07:56:11.092Z,48.25
2022-09-02T07:58:41.812Z,46.71
2022-09-02T08:01:14.715Z,46.94
2022-09-02T08:03:46.451Z,47.22
2022-09-02T08:06:17.504Z,46.49
2022-09-02T08:08:57.977Z,45.12
2022-09-02T08:11:27.716Z,45.30
2022-09-02T08:13:57.943Z,41.02
2022-09-02T08:16:30.278Z,40.66
2022-09-02T08:19:02.751Z,44.13
2022-09-02T08:21:32.206Z,46.98
2022-09-02T08:24:02.706Z,51.58
2022-09-02T08:26:37.376Z,54.48
2022-09-02T08:29:43.910Z,56.20
2022-09-02T08:32:16.537Z,58.56
2022-09-02T08:34:48.441Z,58.08
2022-09-02T08:37:20.709Z,58.25
2022-09-02T08:39:54.336Z,57.34
2022-09-02T08:42:28.022Z,58.24
2022-09-02T08:45:14.250Z,57.55
2022-09-02T08:47:50.713Z,52.80
2022-09-02T08:50:26.813Z,47.15
2022-09-02T08:53:06.951Z,42.22
2022-09-02T08:55:44.849Z,38.24
2022-09-02T08:58:19.520Z,39.67
2022-09-02T09:00:59.751Z,39.43
2022-09-02T09:03:38.103Z,43.12
2022-09-02T09:06:15.813Z,42.20
2022-09-02T09:08:53.036Z,42.25
2022-09-02T09:11:31.035Z,39.81
2022-09-02T09:14:16.654Z,42.58
2022-09-02T09:17:00.007Z,43.17
2022-09-02T09:19:42.746Z,42.53
2022-09-02T09:22:17.225Z,42.28
2022-09-02T09:24:48.649Z,43.36
2022-09-02T09:27:20.930Z,40.37
2022-09-02T09:29:52.504Z,35.71
2022-09-02T09:32:27.843Z,35.17
2022-09-02T09:35:03.266Z,38.18
2022-09-02T09:37:36.428Z,38.79
2022-09-02T09:40:33.439Z,39.95
2022-09-02T09:43:24.511Z,39.48
2022-09-02T09:45:56.071Z,38.80
2022-09-02T09:48:32.949Z,37.95
2022-09-02T09:51:19.605Z,38.38
2022-09-02T09:53:49.594Z,39.21
2022-09-02T09:56:37.276Z,38.04
2022-09-02T09:59:10.803Z,35.61
2022-09-02T10:01:41.115Z,37.84
2022-09-02T10:07:06.483Z,37.54
2022-09-02T10:09:37.734Z,34.17
2022-09-02T10:12:09.781Z,34.35
2022-09-02T10:14:42.023Z,36.42
2022-09-02T10:17:24.155Z,38.35
2022-09-02T10:19:59.297Z,40.01
2022-09-02T10:22:59.560Z,39.71
2022-09-02T10:25:38.121Z,38.87
2022-09-02T10:28:23.292Z,40.09
2022-09-02T10:31:04.405Z,41.96
2022-09-02T10:33:42.678Z,48.05
2022-09-02T10:36:25.261Z,50.21
2022-09-02T10:39:05.872Z,50.77
2022-09-02T10:44:33.083Z,52.71
2022-09-02T10:47:05.100Z,53.51
2022-09-02T10:50:05.414Z,53.94
2022-09-02T10:53:11.399Z,56.14
2022-09-02T10:55:51.243Z,56.91
2022-09-02T10:58:24.960Z,56.39
2022-09-02T11:00:58.791Z,56.97
2022-09-02T11:03:35.404Z,49.72
2022-09-02T11:06:12.131Z,44.84
2022-09-02T11:08:56.686Z,43.17
2022-09-02T11:11:33.966Z,40.98
2022-09-02T11:16:51.451Z,37.78
2022-09-02T11:19:28.671Z,37.36
2022-09-02T11:22:12.725Z,36.53
2022-09-02T11:24:48.760Z,34.06
2022-09-02T11:27:41.486Z,37.51
2022-09-02T11:30:15.670Z,41.26
2022-09-02T11:32:51.721Z,43.11
2022-09-02T11:35:28.852Z,43.38
2022-09-02T11:38:05.272Z,40.38
2022-09-02T11:40:44.695Z,40.08
2022-09-02T11:43:36.825Z,41.51
2022-09-02T11:46:40.182Z,40.49
2022-09-02T11:49:44.546Z,36.92
2022-09-02T11:52:40.234Z,34.55
2022-09-02T11:55:16.763Z,33.58
2022-09-02T11:57:57.705Z,37.29
2022-09-02T12:00:34.268Z,37.53
2022-09-02T12:03:40.886Z,40.90
2022-09-02T12:06:10.791Z,44.04
2022-09-02T12:09:09.940Z,43.75
2022-09-02T12:11:57.283Z,43.28
2022-09-02T12:15:11.703Z,43.02
2022-09-02T12:18:09.981Z,43.68
2022-09-02T12:21:16.391Z,43.48
2022-09-02T12:24:21.539Z,46.08
2022-09-02T12:27:20.566Z,44.19
2022-09-02T12:29:52.164Z,43.47
2022-09-02T12:33:02.585Z,42.42
2022-09-02T12:35:52.084Z,43.24
2022-09-02T12:38:30.639Z,42.16
2022-09-02T12:41:24.817Z,42.00
2022-09-02T12:44:24.374Z,42.22
2022-09-02T12:47:03.058Z,41.76
2022-09-02T12:49:51.233Z,40.91
2022-09-02T12:52:49.124Z,40.71
2022-09-02T12:55:25.975Z,38.65
2022-09-02T12:58:08.078Z,39.05
2022-09-02T13:00:53.462Z,38.71
2022-09-02T13:03:49.516Z,37.58
2022-09-02T13:06:29.853Z,37.64
2022-09-02T13:09:30.946Z,36.59
2022-09-02T13:12:37.053Z,37.25
2022-09-02T13:15:25.393Z,37.44
2022-09-02T13:18:30.997Z,37.96
2022-09-02T13:21:37.974Z,38.41
2022-09-02T13:24:42.149Z,39.11
2022-09-02T13:27:42.950Z,43.57
2022-09-02T13:30:20.585Z,46.36
2022-09-02T13:33:07.846Z,47.83
2022-09-02T13:35:40.721Z,48.02
2022-09-02T13:38:16.473Z,46.63
2022-09-02T13:43:24.253Z,45.57
2022-09-02T13:45:56.930Z,45.48
2022-09-02T13:48:29.156Z,44.72
2022-09-02T13:51:02.020Z,43.99
2022-09-02T13:54:18.233Z,41.11
2022-09-02T13:56:32.206Z,38.91
2022-09-02T13:59:04.537Z,39.07
2022-09-02T14:01:37.130Z,39.77
2022-09-02T14:04:18.290Z,39.34
2022-09-02T14:06:49.197Z,39.47
2022-09-02T14:09:23.752Z,40.35
2022-09-02T14:11:55.854Z,41.00
2022-09-02T14:14:28.702Z,41.45
2022-09-02T14:17:21.305Z,41.53
2022-09-02T14:19:52.174Z,42.27
2022-09-02T14:22:29.980Z,42.65
2022-09-02T14:25:01.908Z,42.47
2022-09-02T14:27:34.190Z,42.79
2022-09-02T14:30:11.274Z,43.28
2022-09-02T14:32:46.899Z,42.86
2022-09-02T14:35:23.666Z,44.81
2022-09-02T14:37:58.006Z,48.56
2022-09-02T14:40:57.189Z,51.13
2022-09-02T14:43:31.508Z,52.83
2022-09-02T14:46:09.182Z,54.33
2022-09-02T14:48:40.506Z,53.18
2022-09-02T14:51:11.196Z,55.02
2022-09-02T14:53:45.716Z,54.19
2022-09-02T14:56:15.334Z,53.31
2022-09-02T14:58:46.032Z,53.40
2022-09-02T15:01:17.609Z,50.41
2022-09-02T15:03:51.614Z,50.32
2022-09-02T15:06:21.844Z,49.37
2022-09-02T15:08:51.705Z,49.13
2022-09-02T15:11:24.643Z,49.38
2022-09-02T15:13:55.270Z,49.73
2022-09-02T15:16:27.049Z,50.75
2022-09-02T15:18:57.058Z,51.36
2022-09-02T15:21:29.685Z,51.43
2022-09-02T15:23:59.776Z,52.27
2022-09-02T15:26:29.687Z,51.97
2022-09-02T15:29:02.673Z,51.50
2022-09-02T15:31:40.080Z,52.05
2022-09-02T15:34:13.802Z,51.38
2022-09-02T15:36:44.571Z,52.11
2022-09-02T15:39:14.855Z,51.90
2022-09-02T15:41:48.726Z,51.44
2022-09-02T15:44:18.500Z,51.86
2022-09-02T15:46:50.182Z,51.70
2022-09-02T15:49:23.895Z,51.87
2022-09-02T15:51:55.298Z,52.53
2022-09-02T15:54:26.469Z,51.36
2022-09-02T15:57:00.646Z,52.03
2022-09-02T15:59:32.289Z,51.95
2022-09-02T16:02:05.272Z,52.31
2022-09-02T16:04:36.670Z,51.71
2022-09-02T16:07:07.874Z,52.05
2022-09-02T16:09:39.230Z,51.84
2022-09-02T16:12:11.388Z,52.06
2022-09-02T16:14:40.683Z,53.51
2022-09-02T16:17:12.840Z,53.79
2022-09-02T16:19:43.820Z,54.22
2022-09-02T16:22:13.818Z,54.43
2022-09-02T16:24:44.013Z,53.11
2022-09-02T16:27:38.935Z,53.54
2022-09-02T16:30:10.773Z,53.07
2022-09-02T16:32:43.899Z,53.19
2022-09-02T16:35:34.782Z,53.15
2022-09-02T16:38:05.069Z,52.97
2022-09-02T16:40:37.687Z,51.75
2022-09-02T16:43:08.459Z,51.01
2022-09-02T16:45:43.346Z,51.02
2022-09-02T16:48:15.025Z,50.56
2022-09-02T16:50:48.404Z,51.09
2022-09-02T16:53:22.680Z,50.39
2022-09-02T16:55:58.549Z,50.69
2022-09-02T16:58:30.241Z,50.95
2022-09-02T17:01:00.605Z,50.79
2022-09-02T17:03:32.804Z,51.04
2022-09-02T17:06:03.626Z,50.77
2022-09-02T17:08:35.150Z,51.01
2022-09-02T17:11:20.273Z,50.27
2022-09-02T17:13:51.644Z,50.79
2022-09-02T17:16:25.593Z,51.30
2022-09-02T17:18:56.858Z,52.03
2022-09-02T17:21:30.749Z,51.70
2022-09-02T17:24:01.018Z,51.63
2022-09-02T17:26:33.105Z,51.53
2022-09-02T17:29:14.097Z,51.31
2022-09-02T17:31:56.587Z,50.82
2022-09-02T17:34:29.045Z,50.80
2022-09-02T17:36:58.643Z,50.57
2022-09-02T17:39:29.893Z,49.97
2022-09-02T17:42:01.160Z,49.90
2022-09-02T17:44:33.704Z,49.66
2022-09-02T17:47:06.585Z,49.76
2022-09-02T17:49:38.723Z,49.78
2022-09-02T17:52:09.442Z,49.38
2022-09-02T17:54:41.879Z,49.26
2022-09-02T17:57:48.805Z,49.58
2022-09-02T18:00:22.646Z,49.47
2022-09-02T18:03:25.834Z,49.25
2022-09-02T18:06:15.564Z,49.06
2022-09-02T18:08:56.435Z,49.22
2022-09-02T18:11:33.050Z,49.20
2022-09-02T18:14:15.205Z,49.62
2022-09-02T18:16:59.465Z,49.44
2022-09-02T18:19:46.051Z,49.38
2022-09-02T18:22:35.948Z,49.47
2022-09-02T18:25:21.825Z,49.51
2022-09-02T18:28:00.178Z,49.54
2022-09-02T18:30:42.034Z,49.38
2022-09-02T18:33:45.934Z,49.67
2022-09-02T18:36:28.170Z,49.44
2022-09-02T18:39:15.328Z,49.69
2022-09-02T18:41:59.101Z,49.55
2022-09-02T18:44:40.727Z,49.54
2022-09-02T18:47:12.172Z,48.72
2022-09-02T18:49:43.690Z,49.46
2022-09-02T18:52:13.222Z,48.95
2022-09-02T18:54:54.487Z,49.77
2022-09-02T18:57:29.379Z,50.04
2022-09-02T19:00:08.100Z,50.37
2022-09-02T19:02:45.165Z,50.67
2022-09-02T19:05:18.734Z,51.10
2022-09-02T19:08:07.813Z,51.51
2022-09-02T19:10:39.965Z,51.35
2022-09-02T19:13:10.410Z,51.62
2022-09-02T19:15:41.045Z,52.02
2022-09-02T19:18:11.593Z,52.23
2022-09-02T19:20:42.979Z,52.56
2022-09-02T19:23:14.706Z,52.48
2022-09-02T19:25:47.553Z,53.21
2022-09-02T19:28:18.764Z,53.06
2022-09-02T19:30:48.895Z,53.44
2022-09-02T19:33:19.351Z,53.69
2022-09-02T19:35:51.194Z,53.36
2022-09-02T19:38:23.892Z,53.86
2022-09-02T19:40:56.088Z,54.07
2022-09-02T19:43:26.546Z,54.39
2022-09-02T19:45:58.253Z,54.10
2022-09-02T19:48:30.204Z,54.66
2022-09-02T19:50:59.722Z,54.83
2022-09-02T19:53:30.391Z,54.88
2022-09-02T19:56:02.011Z,54.74
2022-09-02T19:58:32.487Z,54.79
2022-09-02T20:01:03.590Z,54.91
2022-09-02T20:03:35.577Z,54.96
2022-09-02T20:06:06.374Z,55.32
2022-09-02T20:08:36.199Z,55.58
2022-09-02T20:11:08.779Z,55.90
2022-09-02T20:13:41.549Z,55.92
2022-09-02T20:16:20.659Z,55.82
2022-09-02T20:18:51.291Z,56.08
2022-09-02T20:21:23.687Z,56.03
2022-09-02T20:23:54.575Z,55.78
2022-09-02T20:26:40.951Z,56.24
2022-09-02T20:29:23.129Z,56.41
2022-09-02T20:32:07.742Z,56.46
2022-09-02T20:34:47.412Z,56.66
2022-09-02T20:37:29.643Z,56.86
2022-09-02T20:40:34.999Z,56.79
2022-09-02T20:43:26.095Z,56.84
2022-09-02T20:48:40.072Z,57.28
2022-09-02T20:51:13.589Z,57.59
2022-09-02T20:54:01.674Z,57.55
2022-09-02T20:56:40.409Z,57.45
2022-09-02T20:59:18.727Z,57.72
2022-09-02T21:01:50.776Z,57.78
2022-09-02T21:04:32.045Z,57.90
2022-09-02T21:07:06.335Z,57.90
2022-09-02T21:09:43.793Z,58.11
2022-09-02T21:12:23.556Z,58.14
2022-09-02T21:15:03.245Z,58.32
2022-09-02T21:17:43.252Z,58.27
2022-09-02T21:20:21.491Z,58.33
2022-09-02T21:22:55.779Z,58.57
2022-09-02T21:25:29.816Z,58.76
2022-09-02T21:28:04.803Z,58.51
2022-09-02T21:30:42.443Z,58.65
2022-09-02T21:33:15.442Z,58.37
2022-09-02T21:35:47.538Z,58.52
2022-09-02T21:38:22.115Z,58.58
2022-09-02T21:41:04.917Z,58.73
2022-09-02T21:43:47.187Z,59.36
2022-09-02T21:46:27.203Z,59.39
2022-09-02T21:49:01.952Z,59.20
2022-09-02T21:51:37.308Z,59.24
2022-09-02T21:54:34.262Z,59.50
2022-09-02T21:57:20.337Z,59.44
2022-09-02T22:00:00.242Z,59.71
2022-09-02T22:02:50.264Z,59.51
2022-09-02T22:05:32.514Z,59.74
2022-09-02T22:08:11.345Z,59.92
2022-09-02T22:10:49.635Z,59.94
2022-09-02T22:13:19.323Z,59.90
2022-09-02T22:15:59.120Z,60.34
2022-09-02T22:18:52.507Z,60.25
2022-09-02T22:21:31.004Z,60.33
2022-09-02T22:24:03.153Z,60.41
2022-09-02T22:26:38.827Z,60.66
2022-09-02T22:29:17.397Z,60.73
2022-09-02T22:31:51.232Z,60.98
2022-09-02T22:34:23.998Z,61.16
2022-09-02T22:36:58.004Z,60.89
2022-09-02T22:39:34.171Z,60.73
2022-09-02T22:42:13.353Z,60.71
2022-09-02T22:45:04.499Z,60.65
2022-09-02T22:47:53.720Z,60.72
2022-09-02T22:50:50.483Z,60.85
2022-09-02T22:53:19.541Z,60.83
2022-09-02T22:55:59.702Z,61.29
2022-09-02T22:58:43.304Z,61.40
2022-09-02T23:01:20.757Z,61.50
2022-09-02T23:04:12.445Z,61.28
2022-09-02T23:06:44.719Z,60.30
2022-09-02T23:09:15.897Z,60.71
2022-09-02T23:11:57.217Z,61.29
2022-09-02T23:14:35.699Z,61.24
2022-09-02T23:17:23.947Z,61.48
2022-09-02T23:20:15.213Z,61.51
2022-09-02T23:23:04.964Z,61.79
2022-09-02T23:25:45.111Z,61.59
2022-09-02T23:28:16.838Z,61.63
2022-09-02T23:30:53.824Z,62.17
2022-09-02T23:33:36.791Z,61.83
2022-09-02T23:36:15.523Z,62.39
2022-09-02T23:39:03.306Z,62.25
2022-09-02T23:41:32.395Z,62.30
2022-09-02T23:44:01.859Z,62.32
2022-09-02T23:46:46.697Z,62.54
2022-09-02T23:49:25.807Z,62.77
2022-09-02T23:52:06.232Z,62.65
2022-09-02T23:54:55.711Z,63.03
2022-09-02T23:57:42.761Z,63.11
